sensor_id;sensor_type;location;lat;lon;timestamp;temperature;humidity
33827;DHT22;20128;45.582;5.298;2024-02-15T00:01:31;11.20;83.60
33827;DHT22;20128;45.582;5.298;2024-02-15T00:03:56;11.20;83.30
33827;DHT22;20128;45.582;5.298;2024-02-15T00:06:22;11.10;82.80
33827;DHT22;20128;45.582;5.298;2024-02-15T00:08:48;11.10;82.70
33827;DHT22;20128;45.582;5.298;2024-02-15T00:11:17;11.10;82.60
33827;DHT22;20128;45.582;5.298;2024-02-15T00:13:43;11.00;82.70
33827;DHT22;20128;45.582;5.298;2024-02-15T00:16:16;11.00;82.70
33827;DHT22;20128;45.582;5.298;2024-02-15T00:18:41;11.00;82.70
33827;DHT22;20128;45.582;5.298;2024-02-15T00:21:07;11.00;82.70
33827;DHT22;20128;45.582;5.298;2024-02-15T00:23:33;10.90;82.80
33827;DHT22;20128;45.582;5.298;2024-02-15T00:25:59;10.90;82.70
33827;DHT22;20128;45.582;5.298;2024-02-15T00:28:24;10.80;82.70
33827;DHT22;20128;45.582;5.298;2024-02-15T00:30:52;10.80;82.70
33827;DHT22;20128;45.582;5.298;2024-02-15T00:33:18;10.70;82.80
33827;DHT22;20128;45.582;5.298;2024-02-15T00:35:44;10.70;82.90
33827;DHT22;20128;45.582;5.298;2024-02-15T00:38:09;10.60;83.60
33827;DHT22;20128;45.582;5.298;2024-02-15T00:40:35;10.50;83.10
33827;DHT22;20128;45.582;5.298;2024-02-15T00:43:01;10.50;83.30
33827;DHT22;20128;45.582;5.298;2024-02-15T00:45:27;10.40;83.40
33827;DHT22;20128;45.582;5.298;2024-02-15T00:47:52;10.40;83.60
33827;DHT22;20128;45.582;5.298;2024-02-15T00:50:19;10.40;83.70
33827;DHT22;20128;45.582;5.298;2024-02-15T00:52:45;10.40;83.70
33827;DHT22;20128;45.582;5.298;2024-02-15T00:55:10;10.40;83.80
33827;DHT22;20128;45.582;5.298;2024-02-15T00:57:36;10.40;83.80
33827;DHT22;20128;45.582;5.298;2024-02-15T01:00:03;10.30;84.30
33827;DHT22;20128;45.582;5.298;2024-02-15T01:02:29;10.20;84.70
33827;DHT22;20128;45.582;5.298;2024-02-15T01:04:54;10.10;85.00
33827;DHT22;20128;45.582;5.298;2024-02-15T01:07:22;10.10;85.20
33827;DHT22;20128;45.582;5.298;2024-02-15T01:09:52;10.20;85.40
33827;DHT22;20128;45.582;5.298;2024-02-15T01:12:18;10.20;85.10
33827;DHT22;20128;45.582;5.298;2024-02-15T01:14:44;10.10;85.10
33827;DHT22;20128;45.582;5.298;2024-02-15T01:17:10;10.00;85.20
33827;DHT22;20128;45.582;5.298;2024-02-15T01:19:35;10.00;85.40
33827;DHT22;20128;45.582;5.298;2024-02-15T01:22:01;9.90;85.50
33827;DHT22;20128;45.582;5.298;2024-02-15T01:24:28;9.80;85.70
33827;DHT22;20128;45.582;5.298;2024-02-15T01:26:53;9.70;86.40
33827;DHT22;20128;45.582;5.298;2024-02-15T01:29:19;9.70;85.90
33827;DHT22;20128;45.582;5.298;2024-02-15T01:31:46;9.70;85.90
33827;DHT22;20128;45.582;5.298;2024-02-15T01:34:11;9.70;85.80
33827;DHT22;20128;45.582;5.298;2024-02-15T01:36:37;9.90;85.80
33827;DHT22;20128;45.582;5.298;2024-02-15T01:39:02;10.00;85.30
33827;DHT22;20128;45.582;5.298;2024-02-15T01:41:28;10.10;85.00
33827;DHT22;20128;45.582;5.298;2024-02-15T01:43:54;10.20;84.80
33827;DHT22;20128;45.582;5.298;2024-02-15T01:46:20;10.20;84.70
33827;DHT22;20128;45.582;5.298;2024-02-15T01:48:46;10.20;84.60
33827;DHT22;20128;45.582;5.298;2024-02-15T01:51:13;10.20;84.50
33827;DHT22;20128;45.582;5.298;2024-02-15T01:53:42;10.20;84.40
33827;DHT22;20128;45.582;5.298;2024-02-15T01:56:08;10.20;84.40
33827;DHT22;20128;45.582;5.298;2024-02-15T01:58:34;10.20;84.40
33827;DHT22;20128;45.582;5.298;2024-02-15T02:01:01;10.30;84.30
33827;DHT22;20128;45.582;5.298;2024-02-15T02:03:27;10.20;84.40
33827;DHT22;20128;45.582;5.298;2024-02-15T02:05:53;10.20;84.40
33827;DHT22;20128;45.582;5.298;2024-02-15T02:08:18;10.20;84.40
33827;DHT22;20128;45.582;5.298;2024-02-15T02:10:44;10.10;84.30
33827;DHT22;20128;45.582;5.298;2024-02-15T02:13:11;10.10;84.50
33827;DHT22;20128;45.582;5.298;2024-02-15T02:15:37;9.90;85.40
33827;DHT22;20128;45.582;5.298;2024-02-15T02:18:03;9.90;85.40
33827;DHT22;20128;45.582;5.298;2024-02-15T02:20:34;9.80;85.40
33827;DHT22;20128;45.582;5.298;2024-02-15T02:23:07;9.80;85.50
33827;DHT22;20128;45.582;5.298;2024-02-15T02:25:33;9.90;85.70
33827;DHT22;20128;45.582;5.298;2024-02-15T02:28:00;9.80;85.80
33827;DHT22;20128;45.582;5.298;2024-02-15T02:30:25;9.70;86.00
33827;DHT22;20128;45.582;5.298;2024-02-15T02:32:55;9.70;86.00
33827;DHT22;20128;45.582;5.298;2024-02-15T02:35:22;9.80;86.10
33827;DHT22;20128;45.582;5.298;2024-02-15T02:37:48;9.70;86.10
33827;DHT22;20128;45.582;5.298;2024-02-15T02:40:14;9.80;86.10
33827;DHT22;20128;45.582;5.298;2024-02-15T02:42:53;9.80;86.00
33827;DHT22;20128;45.582;5.298;2024-02-15T02:45:22;9.90;86.00
33827;DHT22;20128;45.582;5.298;2024-02-15T02:47:51;9.90;86.00
33827;DHT22;20128;45.582;5.298;2024-02-15T02:50:17;9.80;86.10
33827;DHT22;20128;45.582;5.298;2024-02-15T02:52:44;9.80;86.20
33827;DHT22;20128;45.582;5.298;2024-02-15T02:55:10;9.80;86.30
33827;DHT22;20128;45.582;5.298;2024-02-15T02:57:37;9.80;86.50
33827;DHT22;20128;45.582;5.298;2024-02-15T03:00:07;9.90;86.50
33827;DHT22;20128;45.582;5.298;2024-02-15T03:02:36;10.00;86.50
33827;DHT22;20128;45.582;5.298;2024-02-15T03:05:05;10.00;86.30
33827;DHT22;20128;45.582;5.298;2024-02-15T03:07:33;10.00;86.30
33827;DHT22;20128;45.582;5.298;2024-02-15T03:10:04;10.00;86.30
33827;DHT22;20128;45.582;5.298;2024-02-15T03:12:30;10.00;86.90
33827;DHT22;20128;45.582;5.298;2024-02-15T03:14:56;10.10;86.50
33827;DHT22;20128;45.582;5.298;2024-02-15T03:17:25;10.00;86.50
33827;DHT22;20128;45.582;5.298;2024-02-15T03:19:51;10.10;86.80
33827;DHT22;20128;45.582;5.298;2024-02-15T03:22:17;10.00;86.90
33827;DHT22;20128;45.582;5.298;2024-02-15T03:24:42;10.10;87.20
33827;DHT22;20128;45.582;5.298;2024-02-15T03:27:08;10.10;87.20
33827;DHT22;20128;45.582;5.298;2024-02-15T03:29:38;10.10;87.20
33827;DHT22;20128;45.582;5.298;2024-02-15T03:32:03;10.10;87.20
33827;DHT22;20128;45.582;5.298;2024-02-15T03:34:30;10.00;87.40
33827;DHT22;20128;45.582;5.298;2024-02-15T03:36:57;10.00;87.60
33827;DHT22;20128;45.582;5.298;2024-02-15T03:39:23;10.00;88.00
33827;DHT22;20128;45.582;5.298;2024-02-15T03:41:49;10.10;88.00
33827;DHT22;20128;45.582;5.298;2024-02-15T03:44:16;10.00;88.30
33827;DHT22;20128;45.582;5.298;2024-02-15T03:46:44;9.90;88.60
33827;DHT22;20128;45.582;5.298;2024-02-15T03:49:19;9.90;88.80
33827;DHT22;20128;45.582;5.298;2024-02-15T03:51:45;9.90;88.70
33827;DHT22;20128;45.582;5.298;2024-02-15T03:54:13;9.90;88.60
33827;DHT22;20128;45.582;5.298;2024-02-15T03:56:49;9.90;88.70
33827;DHT22;20128;45.582;5.298;2024-02-15T03:59:21;9.90;88.70
33827;DHT22;20128;45.582;5.298;2024-02-15T04:01:54;9.90;88.90
33827;DHT22;20128;45.582;5.298;2024-02-15T04:04:21;9.90;88.90
33827;DHT22;20128;45.582;5.298;2024-02-15T04:06:50;9.90;89.00
33827;DHT22;20128;45.582;5.298;2024-02-15T04:09:17;10.00;89.00
33827;DHT22;20128;45.582;5.298;2024-02-15T04:11:43;10.10;88.70
33827;DHT22;20128;45.582;5.298;2024-02-15T04:14:09;10.10;88.80
33827;DHT22;20128;45.582;5.298;2024-02-15T04:16:35;10.10;88.90
33827;DHT22;20128;45.582;5.298;2024-02-15T04:19:01;10.00;89.20
33827;DHT22;20128;45.582;5.298;2024-02-15T04:21:28;10.10;89.80
33827;DHT22;20128;45.582;5.298;2024-02-15T04:23:53;10.20;89.20
33827;DHT22;20128;45.582;5.298;2024-02-15T04:26:20;10.20;89.10
33827;DHT22;20128;45.582;5.298;2024-02-15T04:28:46;10.20;89.20
33827;DHT22;20128;45.582;5.298;2024-02-15T04:31:18;10.20;89.30
33827;DHT22;20128;45.582;5.298;2024-02-15T04:33:43;10.20;89.20
33827;DHT22;20128;45.582;5.298;2024-02-15T04:36:09;10.20;89.20
33827;DHT22;20128;45.582;5.298;2024-02-15T04:38:34;10.20;89.40
33827;DHT22;20128;45.582;5.298;2024-02-15T04:41:03;10.20;89.60
33827;DHT22;20128;45.582;5.298;2024-02-15T04:43:35;10.20;89.50
33827;DHT22;20128;45.582;5.298;2024-02-15T04:46:03;10.20;89.50
33827;DHT22;20128;45.582;5.298;2024-02-15T04:48:32;10.30;89.60
33827;DHT22;20128;45.582;5.298;2024-02-15T04:50:59;10.30;89.60
33827;DHT22;20128;45.582;5.298;2024-02-15T04:53:26;10.30;89.70
33827;DHT22;20128;45.582;5.298;2024-02-15T04:55:55;10.30;89.60
33827;DHT22;20128;45.582;5.298;2024-02-15T04:58:20;10.30;89.70
33827;DHT22;20128;45.582;5.298;2024-02-15T05:00:46;10.30;89.60
33827;DHT22;20128;45.582;5.298;2024-02-15T05:03:14;10.30;89.70
33827;DHT22;20128;45.582;5.298;2024-02-15T05:05:39;10.40;90.10
33827;DHT22;20128;45.582;5.298;2024-02-15T05:08:05;10.30;89.50
33827;DHT22;20128;45.582;5.298;2024-02-15T05:10:31;10.40;89.50
33827;DHT22;20128;45.582;5.298;2024-02-15T05:12:56;10.40;89.40
33827;DHT22;20128;45.582;5.298;2024-02-15T05:15:22;10.40;89.30
33827;DHT22;20128;45.582;5.298;2024-02-15T05:17:50;10.30;89.20
33827;DHT22;20128;45.582;5.298;2024-02-15T05:20:16;10.40;89.30
33827;DHT22;20128;45.582;5.298;2024-02-15T05:22:42;10.40;89.30
33827;DHT22;20128;45.582;5.298;2024-02-15T05:25:13;10.40;89.30
33827;DHT22;20128;45.582;5.298;2024-02-15T05:27:41;10.40;89.30
33827;DHT22;20128;45.582;5.298;2024-02-15T05:30:08;10.40;89.20
33827;DHT22;20128;45.582;5.298;2024-02-15T05:32:36;10.50;89.30
33827;DHT22;20128;45.582;5.298;2024-02-15T05:35:09;10.40;89.10
33827;DHT22;20128;45.582;5.298;2024-02-15T05:37:38;10.40;89.10
33827;DHT22;20128;45.582;5.298;2024-02-15T05:40:04;10.40;89.20
33827;DHT22;20128;45.582;5.298;2024-02-15T05:42:30;10.50;89.40
33827;DHT22;20128;45.582;5.298;2024-02-15T05:45:14;10.40;89.20
33827;DHT22;20128;45.582;5.298;2024-02-15T05:47:40;10.40;89.20
33827;DHT22;20128;45.582;5.298;2024-02-15T05:50:06;10.40;89.20
33827;DHT22;20128;45.582;5.298;2024-02-15T05:52:32;10.40;89.20
33827;DHT22;20128;45.582;5.298;2024-02-15T05:54:58;10.40;89.20
33827;DHT22;20128;45.582;5.298;2024-02-15T05:57:23;10.40;89.30
33827;DHT22;20128;45.582;5.298;2024-02-15T05:59:49;10.30;89.30
33827;DHT22;20128;45.582;5.298;2024-02-15T06:02:14;10.30;90.00
33827;DHT22;20128;45.582;5.298;2024-02-15T06:04:41;10.20;89.50
33827;DHT22;20128;45.582;5.298;2024-02-15T06:07:07;10.20;89.60
33827;DHT22;20128;45.582;5.298;2024-02-15T06:09:35;10.20;89.60
33827;DHT22;20128;45.582;5.298;2024-02-15T06:12:02;10.20;89.60
33827;DHT22;20128;45.582;5.298;2024-02-15T06:14:28;10.20;89.70
33827;DHT22;20128;45.582;5.298;2024-02-15T06:16:53;10.30;89.70
33827;DHT22;20128;45.582;5.298;2024-02-15T06:19:20;10.30;89.60
33827;DHT22;20128;45.582;5.298;2024-02-15T06:21:47;10.30;89.50
33827;DHT22;20128;45.582;5.298;2024-02-15T06:24:12;10.30;89.50
33827;DHT22;20128;45.582;5.298;2024-02-15T06:26:39;10.30;89.40
33827;DHT22;20128;45.582;5.298;2024-02-15T06:29:05;10.30;89.20
33827;DHT22;20128;45.582;5.298;2024-02-15T06:31:49;10.30;89.20
33827;DHT22;20128;45.582;5.298;2024-02-15T06:34:33;10.30;88.90
33827;DHT22;20128;45.582;5.298;2024-02-15T06:37:36;10.30;88.80
33827;DHT22;20128;45.582;5.298;2024-02-15T06:40:20;10.30;88.70
33827;DHT22;20128;45.582;5.298;2024-02-15T06:42:46;10.30;88.50
33827;DHT22;20128;45.582;5.298;2024-02-15T06:45:12;10.30;88.40
33827;DHT22;20128;45.582;5.298;2024-02-15T06:47:41;10.30;88.30
33827;DHT22;20128;45.582;5.298;2024-02-15T06:50:10;10.30;88.20
33827;DHT22;20128;45.582;5.298;2024-02-15T06:52:46;10.30;88.20
33827;DHT22;20128;45.582;5.298;2024-02-15T06:55:14;10.40;88.20
33827;DHT22;20128;45.582;5.298;2024-02-15T06:57:40;10.40;88.30
33827;DHT22;20128;45.582;5.298;2024-02-15T07:00:07;10.40;88.10
33827;DHT22;20128;45.582;5.298;2024-02-15T07:02:35;10.40;88.20
33827;DHT22;20128;45.582;5.298;2024-02-15T07:05:01;10.40;88.30
33827;DHT22;20128;45.582;5.298;2024-02-15T07:07:30;10.40;88.60
33827;DHT22;20128;45.582;5.298;2024-02-15T07:09:57;10.40;88.10
33827;DHT22;20128;45.582;5.298;2024-02-15T07:12:23;10.40;88.10
33827;DHT22;20128;45.582;5.298;2024-02-15T07:14:48;10.40;88.00
33827;DHT22;20128;45.582;5.298;2024-02-15T07:17:14;10.40;88.10
33827;DHT22;20128;45.582;5.298;2024-02-15T07:19:44;10.30;88.00
33827;DHT22;20128;45.582;5.298;2024-02-15T07:22:10;10.40;88.10
33827;DHT22;20128;45.582;5.298;2024-02-15T07:24:36;10.40;88.10
33827;DHT22;20128;45.582;5.298;2024-02-15T07:27:05;10.40;88.10
33827;DHT22;20128;45.582;5.298;2024-02-15T07:29:30;10.40;88.10
33827;DHT22;20128;45.582;5.298;2024-02-15T07:31:58;10.30;88.10
33827;DHT22;20128;45.582;5.298;2024-02-15T07:34:26;10.30;88.60
33827;DHT22;20128;45.582;5.298;2024-02-15T07:36:52;10.40;88.40
33827;DHT22;20128;45.582;5.298;2024-02-15T07:39:17;10.30;88.30
33827;DHT22;20128;45.582;5.298;2024-02-15T07:41:53;10.40;88.40
33827;DHT22;20128;45.582;5.298;2024-02-15T07:44:18;10.40;88.40
33827;DHT22;20128;45.582;5.298;2024-02-15T07:46:46;10.40;88.40
33827;DHT22;20128;45.582;5.298;2024-02-15T07:49:11;10.40;88.30
33827;DHT22;20128;45.582;5.298;2024-02-15T07:51:37;10.50;88.30
33827;DHT22;20128;45.582;5.298;2024-02-15T07:54:03;10.50;88.30
33827;DHT22;20128;45.582;5.298;2024-02-15T07:56:30;10.50;88.10
33827;DHT22;20128;45.582;5.298;2024-02-15T07:58:55;10.60;88.20
33827;DHT22;20128;45.582;5.298;2024-02-15T08:01:22;10.60;88.10
33827;DHT22;20128;45.582;5.298;2024-02-15T08:03:48;10.70;88.10
33827;DHT22;20128;45.582;5.298;2024-02-15T08:06:15;10.70;87.90
33827;DHT22;20128;45.582;5.298;2024-02-15T08:08:46;10.70;88.00
33827;DHT22;20128;45.582;5.298;2024-02-15T08:11:12;10.80;88.10
33827;DHT22;20128;45.582;5.298;2024-02-15T08:13:51;10.90;88.10
33827;DHT22;20128;45.582;5.298;2024-02-15T08:16:20;10.90;88.00
33827;DHT22;20128;45.582;5.298;2024-02-15T08:18:48;11.00;88.10
33827;DHT22;20128;45.582;5.298;2024-02-15T08:21:17;11.10;87.50
33827;DHT22;20128;45.582;5.298;2024-02-15T08:23:43;11.10;87.50
33827;DHT22;20128;45.582;5.298;2024-02-15T08:26:10;11.20;87.60
33827;DHT22;20128;45.582;5.298;2024-02-15T08:28:38;11.20;87.60
33827;DHT22;20128;45.582;5.298;2024-02-15T08:31:04;11.30;87.70
33827;DHT22;20128;45.582;5.298;2024-02-15T08:33:30;11.30;87.00
33827;DHT22;20128;45.582;5.298;2024-02-15T08:35:56;11.40;87.10
33827;DHT22;20128;45.582;5.298;2024-02-15T08:38:22;11.50;87.20
33827;DHT22;20128;45.582;5.298;2024-02-15T08:40:48;11.60;87.60
33827;DHT22;20128;45.582;5.298;2024-02-15T08:43:14;11.70;87.00
33827;DHT22;20128;45.582;5.298;2024-02-15T08:45:41;11.70;87.10
33827;DHT22;20128;45.582;5.298;2024-02-15T08:48:07;11.80;86.90
33827;DHT22;20128;45.582;5.298;2024-02-15T08:50:33;11.90;86.60
33827;DHT22;20128;45.582;5.298;2024-02-15T08:52:59;12.00;86.80
33827;DHT22;20128;45.582;5.298;2024-02-15T08:55:24;12.10;86.30
33827;DHT22;20128;45.582;5.298;2024-02-15T08:57:53;12.20;85.90
33827;DHT22;20128;45.582;5.298;2024-02-15T09:00:19;12.20;85.70
33827;DHT22;20128;45.582;5.298;2024-02-15T09:02:47;12.30;85.60
33827;DHT22;20128;45.582;5.298;2024-02-15T09:05:14;12.30;85.50
33827;DHT22;20128;45.582;5.298;2024-02-15T09:07:43;12.40;85.20
33827;DHT22;20128;45.582;5.298;2024-02-15T09:10:10;12.40;84.50
33827;DHT22;20128;45.582;5.298;2024-02-15T09:12:39;12.50;84.40
33827;DHT22;20128;45.582;5.298;2024-02-15T09:15:09;12.50;84.40
33827;DHT22;20128;45.582;5.298;2024-02-15T09:17:36;12.50;84.70
33827;DHT22;20128;45.582;5.298;2024-02-15T09:20:16;12.50;85.00
33827;DHT22;20128;45.582;5.298;2024-02-15T09:22:50;12.50;84.90
33827;DHT22;20128;45.582;5.298;2024-02-15T09:25:17;12.60;84.20
33827;DHT22;20128;45.582;5.298;2024-02-15T09:27:43;12.60;84.30
33827;DHT22;20128;45.582;5.298;2024-02-15T09:30:10;12.60;84.70
33827;DHT22;20128;45.582;5.298;2024-02-15T09:32:37;12.70;84.90
33827;DHT22;20128;45.582;5.298;2024-02-15T09:35:03;12.70;84.60
33827;DHT22;20128;45.582;5.298;2024-02-15T09:37:36;12.70;84.70
33827;DHT22;20128;45.582;5.298;2024-02-15T09:40:11;12.80;84.90
33827;DHT22;20128;45.582;5.298;2024-02-15T09:42:38;12.80;84.90
33827;DHT22;20128;45.582;5.298;2024-02-15T09:45:05;12.80;84.90
33827;DHT22;20128;45.582;5.298;2024-02-15T09:47:35;12.80;85.10
33827;DHT22;20128;45.582;5.298;2024-02-15T09:50:09;12.90;85.30
33827;DHT22;20128;45.582;5.298;2024-02-15T09:52:39;12.90;85.30
33827;DHT22;20128;45.582;5.298;2024-02-15T09:55:07;12.80;85.20
33827;DHT22;20128;45.582;5.298;2024-02-15T09:57:41;12.80;85.40
33827;DHT22;20128;45.582;5.298;2024-02-15T10:00:07;12.90;85.50
33827;DHT22;20128;45.582;5.298;2024-02-15T10:02:38;12.90;85.20
33827;DHT22;20128;45.582;5.298;2024-02-15T10:05:05;13.00;85.00
33827;DHT22;20128;45.582;5.298;2024-02-15T10:07:31;13.10;85.00
33827;DHT22;20128;45.582;5.298;2024-02-15T10:09:57;13.10;84.90
33827;DHT22;20128;45.582;5.298;2024-02-15T10:12:39;13.20;84.90
33827;DHT22;20128;45.582;5.298;2024-02-15T10:15:05;13.30;84.80
33827;DHT22;20128;45.582;5.298;2024-02-15T10:17:33;13.50;84.30
33827;DHT22;20128;45.582;5.298;2024-02-15T10:20:04;13.80;83.90
33827;DHT22;20128;45.582;5.298;2024-02-15T10:22:30;13.90;82.10
33827;DHT22;20128;45.582;5.298;2024-02-15T10:25:15;14.00;81.50
33827;DHT22;20128;45.582;5.298;2024-02-15T10:27:41;14.10;81.50
33827;DHT22;20128;45.582;5.298;2024-02-15T10:30:19;14.10;81.60
33827;DHT22;20128;45.582;5.298;2024-02-15T10:32:46;14.20;81.90
33827;DHT22;20128;45.582;5.298;2024-02-15T10:35:22;14.30;80.80
33827;DHT22;20128;45.582;5.298;2024-02-15T10:37:49;14.30;80.80
33827;DHT22;20128;45.582;5.298;2024-02-15T10:40:22;14.40;80.20
33827;DHT22;20128;45.582;5.298;2024-02-15T10:42:50;14.60;79.60
33827;DHT22;20128;45.582;5.298;2024-02-15T10:45:17;14.70;79.30
33827;DHT22;20128;45.582;5.298;2024-02-15T10:47:46;14.80;78.90
33827;DHT22;20128;45.582;5.298;2024-02-15T10:50:13;14.90;78.30
33827;DHT22;20128;45.582;5.298;2024-02-15T10:55:26;14.90;78.70
33827;DHT22;20128;45.582;5.298;2024-02-15T10:57:55;14.90;78.70
33827;DHT22;20128;45.582;5.298;2024-02-15T11:00:24;14.90;77.90
33827;DHT22;20128;45.582;5.298;2024-02-15T11:03:04;14.80;78.00
33827;DHT22;20128;45.582;5.298;2024-02-15T11:05:35;14.80;78.30
33827;DHT22;20128;45.582;5.298;2024-02-15T11:08:05;14.70;78.20
33827;DHT22;20128;45.582;5.298;2024-02-15T11:10:33;14.70;78.40
33827;DHT22;20128;45.582;5.298;2024-02-15T11:13:00;14.70;78.50
33827;DHT22;20128;45.582;5.298;2024-02-15T11:18:02;14.60;79.10
33827;DHT22;20128;45.582;5.298;2024-02-15T11:20:49;14.60;79.20
33827;DHT22;20128;45.582;5.298;2024-02-15T11:23:24;14.50;79.40
33827;DHT22;20128;45.582;5.298;2024-02-15T11:25:50;14.50;79.20
33827;DHT22;20128;45.582;5.298;2024-02-15T11:30:49;14.50;79.30
33827;DHT22;20128;45.582;5.298;2024-02-15T11:33:33;14.60;79.50
33827;DHT22;20128;45.582;5.298;2024-02-15T11:36:05;14.60;79.10
33827;DHT22;20128;45.582;5.298;2024-02-15T11:38:32;14.60;79.50
33827;DHT22;20128;45.582;5.298;2024-02-15T11:41:05;14.60;79.20
33827;DHT22;20128;45.582;5.298;2024-02-15T11:46:15;14.70;79.70
33827;DHT22;20128;45.582;5.298;2024-02-15T11:48:45;14.70;79.80
33827;DHT22;20128;45.582;5.298;2024-02-15T11:51:27;14.80;80.20
33827;DHT22;20128;45.582;5.298;2024-02-15T11:54:07;14.90;80.30
33827;DHT22;20128;45.582;5.298;2024-02-15T11:56:50;14.90;80.70
33827;DHT22;20128;45.582;5.298;2024-02-15T11:59:45;14.90;80.50
33827;DHT22;20128;45.582;5.298;2024-02-15T12:02:39;14.90;80.70
33827;DHT22;20128;45.582;5.298;2024-02-15T12:05:23;14.90;80.40
33827;DHT22;20128;45.582;5.298;2024-02-15T12:08:07;15.00;80.80
33827;DHT22;20128;45.582;5.298;2024-02-15T12:10:58;15.00;81.00
33827;DHT22;20128;45.582;5.298;2024-02-15T12:13:42;15.10;81.10
33827;DHT22;20128;45.582;5.298;2024-02-15T12:16:26;15.20;80.90
33827;DHT22;20128;45.582;5.298;2024-02-15T12:19:10;15.20;81.30
33827;DHT22;20128;45.582;5.298;2024-02-15T12:21:37;15.40;81.50
33827;DHT22;20128;45.582;5.298;2024-02-15T12:24:07;15.40;81.10
33827;DHT22;20128;45.582;5.298;2024-02-15T12:26:32;15.50;81.10
33827;DHT22;20128;45.582;5.298;2024-02-15T12:29:00;15.50;81.10
33827;DHT22;20128;45.582;5.298;2024-02-15T12:31:26;15.50;81.10
33827;DHT22;20128;45.582;5.298;2024-02-15T12:34:03;15.50;81.10
33827;DHT22;20128;45.582;5.298;2024-02-15T12:36:34;15.60;81.20
33827;DHT22;20128;45.582;5.298;2024-02-15T12:39:04;15.70;81.50
33827;DHT22;20128;45.582;5.298;2024-02-15T12:41:48;15.80;81.40
33827;DHT22;20128;45.582;5.298;2024-02-15T12:44:18;15.90;81.60
33827;DHT22;20128;45.582;5.298;2024-02-15T12:46:56;16.10;81.30
33827;DHT22;20128;45.582;5.298;2024-02-15T12:51:53;16.30;81.00
33827;DHT22;20128;45.582;5.298;2024-02-15T12:54:20;16.40;81.10
33827;DHT22;20128;45.582;5.298;2024-02-15T12:56:49;16.50;81.50
33827;DHT22;20128;45.582;5.298;2024-02-15T12:59:18;16.50;80.90
33827;DHT22;20128;45.582;5.298;2024-02-15T13:01:45;16.50;80.60
33827;DHT22;20128;45.582;5.298;2024-02-15T13:04:23;16.60;80.40
33827;DHT22;20128;45.582;5.298;2024-02-15T13:06:50;16.60;80.30
33827;DHT22;20128;45.582;5.298;2024-02-15T13:09:15;16.70;80.10
33827;DHT22;20128;45.582;5.298;2024-02-15T13:11:41;16.70;80.30
33827;DHT22;20128;45.582;5.298;2024-02-15T13:14:10;16.70;80.10
33827;DHT22;20128;45.582;5.298;2024-02-15T13:16:36;16.70;79.70
33827;DHT22;20128;45.582;5.298;2024-02-15T13:19:02;16.60;79.60
33827;DHT22;20128;45.582;5.298;2024-02-15T13:21:28;16.60;79.50
33827;DHT22;20128;45.582;5.298;2024-02-15T13:23:56;16.50;79.70
33827;DHT22;20128;45.582;5.298;2024-02-15T13:26:21;16.40;80.10
33827;DHT22;20128;45.582;5.298;2024-02-15T13:28:51;16.40;80.30
33827;DHT22;20128;45.582;5.298;2024-02-15T13:31:17;16.40;80.50
33827;DHT22;20128;45.582;5.298;2024-02-15T13:33:43;16.40;80.30
33827;DHT22;20128;45.582;5.298;2024-02-15T13:36:08;16.50;80.10
33827;DHT22;20128;45.582;5.298;2024-02-15T13:38:37;16.50;80.70
33827;DHT22;20128;45.582;5.298;2024-02-15T13:41:03;16.60;80.60
33827;DHT22;20128;45.582;5.298;2024-02-15T13:43:29;16.60;80.30
33827;DHT22;20128;45.582;5.298;2024-02-15T13:45:56;16.70;80.10
33827;DHT22;20128;45.582;5.298;2024-02-15T13:48:22;16.70;80.00
33827;DHT22;20128;45.582;5.298;2024-02-15T13:50:51;16.70;80.00
33827;DHT22;20128;45.582;5.298;2024-02-15T13:53:18;16.80;79.60
33827;DHT22;20128;45.582;5.298;2024-02-15T13:55:44;16.70;79.20
33827;DHT22;20128;45.582;5.298;2024-02-15T13:58:10;16.70;79.60
33827;DHT22;20128;45.582;5.298;2024-02-15T14:00:40;16.70;79.30
33827;DHT22;20128;45.582;5.298;2024-02-15T14:03:08;16.70;79.40
33827;DHT22;20128;45.582;5.298;2024-02-15T14:05:35;16.70;79.60
33827;DHT22;20128;45.582;5.298;2024-02-15T14:08:05;16.80;80.10
33827;DHT22;20128;45.582;5.298;2024-02-15T14:10:32;16.80;79.60
33827;DHT22;20128;45.582;5.298;2024-02-15T14:13:00;16.80;79.70
33827;DHT22;20128;45.582;5.298;2024-02-15T14:15:32;16.90;79.70
33827;DHT22;20128;45.582;5.298;2024-02-15T14:18:11;16.80;79.80
33827;DHT22;20128;45.582;5.298;2024-02-15T14:20:39;16.90;80.20
33827;DHT22;20128;45.582;5.298;2024-02-15T14:23:05;16.90;79.90
33827;DHT22;20128;45.582;5.298;2024-02-15T14:25:31;16.90;79.60
33827;DHT22;20128;45.582;5.298;2024-02-15T14:27:58;16.90;79.60
33827;DHT22;20128;45.582;5.298;2024-02-15T14:30:24;16.90;79.70
33827;DHT22;20128;45.582;5.298;2024-02-15T14:33:09;17.00;79.70
33827;DHT22;20128;45.582;5.298;2024-02-15T14:35:40;17.00;79.20
33827;DHT22;20128;45.582;5.298;2024-02-15T14:38:07;16.90;79.10
33827;DHT22;20128;45.582;5.298;2024-02-15T14:40:54;16.90;79.30
33827;DHT22;20128;45.582;5.298;2024-02-15T14:43:22;16.90;79.30
33827;DHT22;20128;45.582;5.298;2024-02-15T14:45:48;16.90;79.40
33827;DHT22;20128;45.582;5.298;2024-02-15T14:48:14;16.90;79.60
33827;DHT22;20128;45.582;5.298;2024-02-15T14:50:43;16.80;79.40
33827;DHT22;20128;45.582;5.298;2024-02-15T14:53:09;16.80;79.40
33827;DHT22;20128;45.582;5.298;2024-02-15T14:55:36;16.80;79.00
33827;DHT22;20128;45.582;5.298;2024-02-15T14:58:06;16.70;79.10
33827;DHT22;20128;45.582;5.298;2024-02-15T15:00:35;16.70;79.30
33827;DHT22;20128;45.582;5.298;2024-02-15T15:03:03;16.70;79.50
33827;DHT22;20128;45.582;5.298;2024-02-15T15:05:29;16.60;79.30
33827;DHT22;20128;45.582;5.298;2024-02-15T15:08:13;16.60;79.50
33827;DHT22;20128;45.582;5.298;2024-02-15T15:10:57;16.60;79.40
33827;DHT22;20128;45.582;5.298;2024-02-15T15:13:58;16.60;79.70
33827;DHT22;20128;45.582;5.298;2024-02-15T15:16:24;16.60;79.70
33827;DHT22;20128;45.582;5.298;2024-02-15T15:18:51;16.60;79.70
33827;DHT22;20128;45.582;5.298;2024-02-15T15:21:18;16.60;79.70
33827;DHT22;20128;45.582;5.298;2024-02-15T15:23:44;16.50;79.50
33827;DHT22;20128;45.582;5.298;2024-02-15T15:26:10;16.50;79.60
33827;DHT22;20128;45.582;5.298;2024-02-15T15:28:37;16.50;79.80
33827;DHT22;20128;45.582;5.298;2024-02-15T15:31:04;16.50;79.70
33827;DHT22;20128;45.582;5.298;2024-02-15T15:33:30;16.50;79.40
33827;DHT22;20128;45.582;5.298;2024-02-15T15:35:59;16.50;79.10
33827;DHT22;20128;45.582;5.298;2024-02-15T15:38:25;16.50;79.40
33827;DHT22;20128;45.582;5.298;2024-02-15T15:40:52;16.40;79.40
33827;DHT22;20128;45.582;5.298;2024-02-15T15:43:19;16.40;79.10
33827;DHT22;20128;45.582;5.298;2024-02-15T15:45:45;16.40;79.30
33827;DHT22;20128;45.582;5.298;2024-02-15T15:48:11;16.40;78.90
33827;DHT22;20128;45.582;5.298;2024-02-15T15:50:37;16.40;79.00
33827;DHT22;20128;45.582;5.298;2024-02-15T15:53:04;16.40;79.30
33827;DHT22;20128;45.582;5.298;2024-02-15T15:55:29;16.40;79.40